NCAR-RAP Real-Time Weather Data

Output produced by METARs form (23 June 2018  19:35 UTC)
found at http://weather.rap.ucar.edu/surface/
 
RJSK 231200Z 31002KT CAVOK 21/10 Q1002
RJSK 231100Z VRB01KT CAVOK 21/09 Q1001
RJSK 231000Z 29005KT CAVOK 22/11 Q1002
RJSK 230900Z 33005KT CAVOK 22/13 Q1001
RJSK 230800Z 30005KT CAVOK 24/10 Q1002
RJSK 230700Z 30005KT CAVOK 25/10 Q1003
RJSK 230600Z 28008KT 250V310 CAVOK 26/10 Q1003
RJSK 230500Z VRB03KT 9999 FEW050 SCT160 BKN/// 26/13 Q1004
RJSK 230400Z 20004KT 110V290 CAVOK 25/13 Q1004
RJSK 230300Z 13004KT 060V240 CAVOK 25/13 Q1004
RJSK 230200Z 12005KT 090V190 CAVOK 24/13 Q1006
RJSK 230100Z 11005KT 080V140 CAVOK 23/12 Q1007
RJSK 230000Z 15005KT 110V200 CAVOK 22/13 Q1008
RJSK 222300Z 11004KT 080V150 CAVOK 21/14 Q1008
RJSK 222200Z 13004KT 090V170 CAVOK 18/14 Q1008
RJSK 222140Z 14004KT 110V190 CAVOK 18/14 Q1008 RMK A2978
RJSK 221200Z 24007KT 200V270 9999 FEW015 18/15 Q1008
RJSK 221100Z 24008KT 9999 FEW015 18/15 Q1008
RJSK 221000Z 24009KT 220V280 9999 FEW015 SCT020 19/15 Q1007
RJSK 220900Z 24009KT 200V280 9999 SCT015 BKN020 20/16 Q1007
RJSK 220800Z 25014KT 210V270 9999 BKN015 BKN020 20/15 Q1007
RJSK 220700Z 25012KT 200V280 9999 FEW015 BKN020 21/15 Q1006
RJSK 220600Z 25014KT 220V280 9999 FEW025 SCT080 BKN/// 21/15 Q1007
RJSK 220500Z 24013KT 190V270 9999 FEW030 SCT080 BKN/// 22/13 Q1006
RJSK 220400Z 24014KT 210V270 9999 FEW030 SCT080 22/14 Q1006
RJSK 220300Z 24016KT 200V270 9999 FEW030 BKN080 22/13 Q1007
RJSK 220200Z 25015KT 210V280 9999 FEW030 SCT080 22/12 Q1007
RJSK 220100Z 25017G27KT 210V280 9999 FEW025 BKN070 21/13 Q1007
RJSK 220000Z 24012KT 210V280 9999 FEW015 BKN070 20/14 Q1007
RJSK 212300Z 25013KT 210V290 9999 FEW008 SCT012 BKN060 19/15 Q1007
RJSK 212200Z 25011KT 9999 FEW008 SCT012 BKN060 18/15 Q1006
RJSK 212140Z 25010KT 210V280 9999 FEW008 BKN012 BKN050 18/15 Q1006 RMK 1ST008 6CU012 6CU050 A2973
RJSK 211200Z 24007KT 200V270 9999 FEW006 SCT010 BKN014 19/16 Q1004
RJSK 211100Z 24008KT 9999 FEW008 BKN013 BKN020 19/16 Q1003
RJSK 211000Z 25007KT 230V290 9999 FEW008 SCT013 BKN020 19/16 Q1002
RJSK 210900Z 24008KT 190V290 9999 FEW010 SCT015 BKN025 19/16 Q1002
RJSK 210800Z 26010KT 230V290 9999 FEW010 BKN015 BKN020 20/16 Q1002